sensor_id;sensor_type;location;lat;lon;timestamp;P1;durP1;ratioP1;P2;durP2;ratioP2
10904;SDS011;5505;51.450;9.254;2023-12-20T00:01:00;3.13;;;2.83;;
10904;SDS011;5505;51.450;9.254;2023-12-20T00:03:47;2.70;;;2.50;;
10904;SDS011;5505;51.450;9.254;2023-12-20T00:06:34;2.00;;;1.90;;
10904;SDS011;5505;51.450;9.254;2023-12-20T00:09:20;2.03;;;1.93;;
10904;SDS011;5505;51.450;9.254;2023-12-20T00:12:09;2.13;;;2.03;;
10904;SDS011;5505;51.450;9.254;2023-12-20T00:14:56;2.80;;;2.60;;
10904;SDS011;5505;51.450;9.254;2023-12-20T00:17:43;2.03;;;1.93;;
10904;SDS011;5505;51.450;9.254;2023-12-20T00:20:29;2.80;;;2.60;;
10904;SDS011;5505;51.450;9.254;2023-12-20T00:23:16;2.33;;;2.23;;
10904;SDS011;5505;51.450;9.254;2023-12-20T00:26:03;2.40;;;2.20;;
10904;SDS011;5505;51.450;9.254;2023-12-20T00:28:51;2.30;;;2.10;;
10904;SDS011;5505;51.450;9.254;2023-12-20T00:31:38;2.50;;;2.30;;
10904;SDS011;5505;51.450;9.254;2023-12-20T00:34:25;2.40;;;2.20;;
10904;SDS011;5505;51.450;9.254;2023-12-20T00:37:12;2.30;;;2.10;;
10904;SDS011;5505;51.450;9.254;2023-12-20T00:39:58;2.40;;;2.20;;
10904;SDS011;5505;51.450;9.254;2023-12-20T00:42:45;2.17;;;2.07;;
10904;SDS011;5505;51.450;9.254;2023-12-20T00:45:34;2.40;;;2.20;;
10904;SDS011;5505;51.450;9.254;2023-12-20T00:48:21;2.43;;;2.10;;
10904;SDS011;5505;51.450;9.254;2023-12-20T00:51:08;2.50;;;2.30;;
10904;SDS011;5505;51.450;9.254;2023-12-20T00:53:55;2.57;;;2.37;;
10904;SDS011;5505;51.450;9.254;2023-12-20T00:56:42;2.73;;;2.30;;
10904;SDS011;5505;51.450;9.254;2023-12-20T00:59:29;3.63;;;2.83;;
10904;SDS011;5505;51.450;9.254;2023-12-20T01:02:17;2.97;;;2.77;;
10904;SDS011;5505;51.450;9.254;2023-12-20T01:05:05;2.23;;;2.03;;
10904;SDS011;5505;51.450;9.254;2023-12-20T01:07:54;2.20;;;2.00;;
10904;SDS011;5505;51.450;9.254;2023-12-20T01:10:41;2.37;;;2.03;;
10904;SDS011;5505;51.450;9.254;2023-12-20T01:13:27;1.80;;;1.70;;
10904;SDS011;5505;51.450;9.254;2023-12-20T01:16:14;2.40;;;1.73;;
10904;SDS011;5505;51.450;9.254;2023-12-20T01:19:02;1.90;;;1.80;;
10904;SDS011;5505;51.450;9.254;2023-12-20T01:21:49;1.70;;;1.60;;
10904;SDS011;5505;51.450;9.254;2023-12-20T01:24:36;2.73;;;1.83;;
10904;SDS011;5505;51.450;9.254;2023-12-20T01:27:23;1.50;;;1.40;;
10904;SDS011;5505;51.450;9.254;2023-12-20T01:30:10;1.87;;;1.77;;
10904;SDS011;5505;51.450;9.254;2023-12-20T01:32:59;1.80;;;1.70;;
10904;SDS011;5505;51.450;9.254;2023-12-20T01:35:47;1.97;;;1.87;;
10904;SDS011;5505;51.450;9.254;2023-12-20T01:38:34;2.10;;;1.90;;
10904;SDS011;5505;51.450;9.254;2023-12-20T01:41:21;2.47;;;2.00;;
10904;SDS011;5505;51.450;9.254;2023-12-20T01:44:08;2.17;;;1.97;;
10904;SDS011;5505;51.450;9.254;2023-12-20T01:46:55;2.50;;;2.30;;
10904;SDS011;5505;51.450;9.254;2023-12-20T01:49:42;2.67;;;2.40;;
10904;SDS011;5505;51.450;9.254;2023-12-20T01:52:31;2.70;;;2.30;;
10904;SDS011;5505;51.450;9.254;2023-12-20T01:55:19;2.43;;;2.23;;
10904;SDS011;5505;51.450;9.254;2023-12-20T01:58:06;3.43;;;2.40;;
10904;SDS011;5505;51.450;9.254;2023-12-20T02:00:55;2.47;;;1.77;;
10904;SDS011;5505;51.450;9.254;2023-12-20T02:03:43;1.93;;;1.27;;
10904;SDS011;5505;51.450;9.254;2023-12-20T02:06:30;5.83;;;1.63;;
10904;SDS011;5505;51.450;9.254;2023-12-20T02:09:21;3.93;;;1.73;;
10904;SDS011;5505;51.450;9.254;2023-12-20T02:12:08;5.60;;;1.63;;
10904;SDS011;5505;51.450;9.254;2023-12-20T02:14:55;4.83;;;2.00;;
10904;SDS011;5505;51.450;9.254;2023-12-20T02:17:42;4.07;;;1.60;;
10904;SDS011;5505;51.450;9.254;2023-12-20T02:20:31;5.60;;;1.77;;
10904;SDS011;5505;51.450;9.254;2023-12-20T02:23:19;5.03;;;1.60;;
10904;SDS011;5505;51.450;9.254;2023-12-20T02:26:06;6.03;;;1.70;;
10904;SDS011;5505;51.450;9.254;2023-12-20T02:28:53;3.33;;;1.37;;
10904;SDS011;5505;51.450;9.254;2023-12-20T02:31:40;4.43;;;1.67;;
10904;SDS011;5505;51.450;9.254;2023-12-20T02:34:27;4.03;;;1.50;;
10904;SDS011;5505;51.450;9.254;2023-12-20T02:37:14;3.10;;;1.37;;
10904;SDS011;5505;51.450;9.254;2023-12-20T02:40:03;4.33;;;1.73;;
10904;SDS011;5505;51.450;9.254;2023-12-20T02:42:50;7.50;;;1.87;;
10904;SDS011;5505;51.450;9.254;2023-12-20T02:45:37;4.03;;;1.80;;
10904;SDS011;5505;51.450;9.254;2023-12-20T02:48:24;7.33;;;1.80;;
10904;SDS011;5505;51.450;9.254;2023-12-20T02:51:11;4.20;;;2.00;;
10904;SDS011;5505;51.450;9.254;2023-12-20T02:53:58;6.20;;;3.00;;
10904;SDS011;5505;51.450;9.254;2023-12-20T02:56:46;3.63;;;2.07;;
10904;SDS011;5505;51.450;9.254;2023-12-20T02:59:33;4.83;;;2.27;;
10904;SDS011;5505;51.450;9.254;2023-12-20T03:02:19;3.97;;;2.03;;
10904;SDS011;5505;51.450;9.254;2023-12-20T03:05:06;3.50;;;1.93;;
10904;SDS011;5505;51.450;9.254;2023-12-20T03:07:54;6.33;;;2.10;;
10904;SDS011;5505;51.450;9.254;2023-12-20T03:10:40;6.00;;;2.10;;
10904;SDS011;5505;51.450;9.254;2023-12-20T03:13:29;3.87;;;2.10;;
10904;SDS011;5505;51.450;9.254;2023-12-20T03:16:16;4.67;;;1.77;;
10904;SDS011;5505;51.450;9.254;2023-12-20T03:19:02;4.13;;;1.90;;
10904;SDS011;5505;51.450;9.254;2023-12-20T03:21:49;6.43;;;2.67;;
10904;SDS011;5505;51.450;9.254;2023-12-20T03:24:38;6.27;;;2.30;;
10904;SDS011;5505;51.450;9.254;2023-12-20T03:27:25;3.83;;;2.53;;
10904;SDS011;5505;51.450;9.254;2023-12-20T03:30:13;8.60;;;3.40;;
10904;SDS011;5505;51.450;9.254;2023-12-20T03:33:00;7.80;;;3.37;;
10904;SDS011;5505;51.450;9.254;2023-12-20T03:35:47;4.03;;;2.60;;
10904;SDS011;5505;51.450;9.254;2023-12-20T03:38:33;5.20;;;2.83;;
10904;SDS011;5505;51.450;9.254;2023-12-20T03:41:20;5.87;;;3.13;;
10904;SDS011;5505;51.450;9.254;2023-12-20T03:44:07;9.60;;;3.33;;
10904;SDS011;5505;51.450;9.254;2023-12-20T03:46:57;7.53;;;3.10;;
10904;SDS011;5505;51.450;9.254;2023-12-20T03:49:44;6.03;;;3.00;;
10904;SDS011;5505;51.450;9.254;2023-12-20T03:52:31;6.10;;;2.80;;
10904;SDS011;5505;51.450;9.254;2023-12-20T03:55:17;5.70;;;2.90;;
10904;SDS011;5505;51.450;9.254;2023-12-20T03:58:04;8.33;;;3.17;;
10904;SDS011;5505;51.450;9.254;2023-12-20T04:00:51;7.50;;;3.10;;
10904;SDS011;5505;51.450;9.254;2023-12-20T04:03:39;6.33;;;2.43;;
10904;SDS011;5505;51.450;9.254;2023-12-20T04:06:26;7.17;;;3.27;;
10904;SDS011;5505;51.450;9.254;2023-12-20T04:09:13;5.80;;;3.00;;
10904;SDS011;5505;51.450;9.254;2023-12-20T04:12:00;7.67;;;2.60;;
10904;SDS011;5505;51.450;9.254;2023-12-20T04:14:47;5.70;;;2.67;;
10904;SDS011;5505;51.450;9.254;2023-12-20T04:17:34;6.77;;;2.77;;
10904;SDS011;5505;51.450;9.254;2023-12-20T04:20:22;5.00;;;2.90;;
10904;SDS011;5505;51.450;9.254;2023-12-20T04:23:09;4.80;;;2.70;;
10904;SDS011;5505;51.450;9.254;2023-12-20T04:25:56;5.83;;;2.97;;
10904;SDS011;5505;51.450;9.254;2023-12-20T04:28:42;6.77;;;2.53;;
10904;SDS011;5505;51.450;9.254;2023-12-20T04:31:29;8.63;;;2.77;;
10904;SDS011;5505;51.450;9.254;2023-12-20T04:34:16;4.47;;;2.77;;
10904;SDS011;5505;51.450;9.254;2023-12-20T04:37:04;8.03;;;2.57;;
10904;SDS011;5505;51.450;9.254;2023-12-20T04:39:51;7.30;;;2.43;;
10904;SDS011;5505;51.450;9.254;2023-12-20T04:42:38;8.73;;;2.17;;
10904;SDS011;5505;51.450;9.254;2023-12-20T04:45:25;7.90;;;2.33;;
10904;SDS011;5505;51.450;9.254;2023-12-20T04:48:11;3.80;;;1.60;;
10904;SDS011;5505;51.450;9.254;2023-12-20T04:50:58;4.60;;;1.70;;
10904;SDS011;5505;51.450;9.254;2023-12-20T04:53:46;4.87;;;1.97;;
10904;SDS011;5505;51.450;9.254;2023-12-20T04:56:33;5.00;;;1.97;;
10904;SDS011;5505;51.450;9.254;2023-12-20T04:59:20;8.37;;;1.70;;
10904;SDS011;5505;51.450;9.254;2023-12-20T05:02:07;5.43;;;1.70;;
10904;SDS011;5505;51.450;9.254;2023-12-20T05:04:54;6.67;;;1.87;;
10904;SDS011;5505;51.450;9.254;2023-12-20T05:07:41;5.13;;;1.70;;
10904;SDS011;5505;51.450;9.254;2023-12-20T05:10:29;6.77;;;1.87;;
10904;SDS011;5505;51.450;9.254;2023-12-20T05:13:16;4.03;;;1.50;;
10904;SDS011;5505;51.450;9.254;2023-12-20T05:16:03;4.60;;;1.57;;
10904;SDS011;5505;51.450;9.254;2023-12-20T05:18:50;8.10;;;1.67;;
10904;SDS011;5505;51.450;9.254;2023-12-20T05:21:37;6.43;;;1.77;;
10904;SDS011;5505;51.450;9.254;2023-12-20T05:24:24;4.37;;;1.57;;
10904;SDS011;5505;51.450;9.254;2023-12-20T05:27:12;6.50;;;2.00;;
10904;SDS011;5505;51.450;9.254;2023-12-20T05:29:59;6.90;;;1.90;;
10904;SDS011;5505;51.450;9.254;2023-12-20T05:32:46;6.33;;;1.80;;
10904;SDS011;5505;51.450;9.254;2023-12-20T05:35:33;7.70;;;1.80;;
10904;SDS011;5505;51.450;9.254;2023-12-20T05:38:20;5.17;;;1.73;;
10904;SDS011;5505;51.450;9.254;2023-12-20T05:41:07;7.77;;;1.90;;
10904;SDS011;5505;51.450;9.254;2023-12-20T05:43:55;3.73;;;1.73;;
10904;SDS011;5505;51.450;9.254;2023-12-20T05:46:43;6.53;;;2.00;;
10904;SDS011;5505;51.450;9.254;2023-12-20T05:49:29;6.80;;;2.07;;
10904;SDS011;5505;51.450;9.254;2023-12-20T05:52:16;7.93;;;2.47;;
10904;SDS011;5505;51.450;9.254;2023-12-20T05:55:03;6.97;;;2.00;;
10904;SDS011;5505;51.450;9.254;2023-12-20T05:57:50;4.40;;;1.60;;
10904;SDS011;5505;51.450;9.254;2023-12-20T06:00:39;9.17;;;2.13;;
10904;SDS011;5505;51.450;9.254;2023-12-20T06:03:25;7.23;;;2.20;;
10904;SDS011;5505;51.450;9.254;2023-12-20T06:06:12;8.73;;;1.83;;
10904;SDS011;5505;51.450;9.254;2023-12-20T06:08:59;10.80;;;2.10;;
10904;SDS011;5505;51.450;9.254;2023-12-20T06:11:47;4.87;;;1.50;;
10904;SDS011;5505;51.450;9.254;2023-12-20T06:14:34;8.00;;;1.83;;
10904;SDS011;5505;51.450;9.254;2023-12-20T06:17:23;7.63;;;2.40;;
10904;SDS011;5505;51.450;9.254;2023-12-20T06:20:10;6.67;;;2.60;;
10904;SDS011;5505;51.450;9.254;2023-12-20T06:22:58;8.27;;;3.20;;
10904;SDS011;5505;51.450;9.254;2023-12-20T06:25:45;10.20;;;2.40;;
10904;SDS011;5505;51.450;9.254;2023-12-20T06:28:32;9.47;;;2.43;;
10904;SDS011;5505;51.450;9.254;2023-12-20T06:31:18;5.33;;;2.07;;
10904;SDS011;5505;51.450;9.254;2023-12-20T06:34:07;8.33;;;2.20;;
10904;SDS011;5505;51.450;9.254;2023-12-20T06:36:54;6.53;;;1.97;;
10904;SDS011;5505;51.450;9.254;2023-12-20T06:39:40;8.30;;;2.30;;
10904;SDS011;5505;51.450;9.254;2023-12-20T06:42:27;10.07;;;1.90;;
10904;SDS011;5505;51.450;9.254;2023-12-20T06:45:14;10.67;;;2.30;;
10904;SDS011;5505;51.450;9.254;2023-12-20T06:48:01;9.70;;;2.30;;
10904;SDS011;5505;51.450;9.254;2023-12-20T06:50:49;8.27;;;2.17;;
10904;SDS011;5505;51.450;9.254;2023-12-20T06:53:36;7.10;;;2.33;;
10904;SDS011;5505;51.450;9.254;2023-12-20T06:56:23;9.77;;;2.40;;
10904;SDS011;5505;51.450;9.254;2023-12-20T06:59:10;7.70;;;2.07;;
10904;SDS011;5505;51.450;9.254;2023-12-20T07:01:56;9.07;;;2.67;;
10904;SDS011;5505;51.450;9.254;2023-12-20T07:04:43;9.77;;;2.47;;
10904;SDS011;5505;51.450;9.254;2023-12-20T07:07:31;8.53;;;2.17;;
10904;SDS011;5505;51.450;9.254;2023-12-20T07:10:18;9.23;;;2.97;;
10904;SDS011;5505;51.450;9.254;2023-12-20T07:13:05;7.20;;;2.43;;
10904;SDS011;5505;51.450;9.254;2023-12-20T07:15:53;8.07;;;2.50;;
10904;SDS011;5505;51.450;9.254;2023-12-20T07:18:39;12.40;;;3.13;;
10904;SDS011;5505;51.450;9.254;2023-12-20T07:21:26;10.97;;;3.70;;
10904;SDS011;5505;51.450;9.254;2023-12-20T07:24:14;9.93;;;3.63;;
10904;SDS011;5505;51.450;9.254;2023-12-20T07:27:01;14.57;;;3.23;;
10904;SDS011;5505;51.450;9.254;2023-12-20T07:29:48;11.57;;;3.23;;
10904;SDS011;5505;51.450;9.254;2023-12-20T07:32:35;9.93;;;3.40;;
10904;SDS011;5505;51.450;9.254;2023-12-20T07:35:22;9.00;;;2.60;;
10904;SDS011;5505;51.450;9.254;2023-12-20T07:38:10;8.00;;;3.00;;
10904;SDS011;5505;51.450;9.254;2023-12-20T07:40:59;10.70;;;2.90;;
10904;SDS011;5505;51.450;9.254;2023-12-20T07:43:46;9.80;;;3.33;;
10904;SDS011;5505;51.450;9.254;2023-12-20T07:46:32;8.60;;;2.83;;
10904;SDS011;5505;51.450;9.254;2023-12-20T07:49:19;16.80;;;3.57;;
10904;SDS011;5505;51.450;9.254;2023-12-20T07:52:06;8.67;;;3.27;;
10904;SDS011;5505;51.450;9.254;2023-12-20T07:54:53;10.37;;;3.23;;
10904;SDS011;5505;51.450;9.254;2023-12-20T07:57:41;8.90;;;2.80;;
10904;SDS011;5505;51.450;9.254;2023-12-20T08:00:28;9.40;;;2.53;;
10904;SDS011;5505;51.450;9.254;2023-12-20T08:03:15;10.43;;;2.93;;
10904;SDS011;5505;51.450;9.254;2023-12-20T08:06:02;6.53;;;2.40;;
10904;SDS011;5505;51.450;9.254;2023-12-20T08:08:49;8.90;;;2.77;;
10904;SDS011;5505;51.450;9.254;2023-12-20T08:11:36;11.50;;;2.97;;
10904;SDS011;5505;51.450;9.254;2023-12-20T08:14:24;10.43;;;2.90;;
10904;SDS011;5505;51.450;9.254;2023-12-20T08:17:11;12.77;;;3.30;;
10904;SDS011;5505;51.450;9.254;2023-12-20T08:20:01;11.07;;;3.73;;
10904;SDS011;5505;51.450;9.254;2023-12-20T08:22:48;9.57;;;4.27;;
10904;SDS011;5505;51.450;9.254;2023-12-20T08:25:35;8.47;;;3.03;;
10904;SDS011;5505;51.450;9.254;2023-12-20T08:28:21;9.60;;;2.37;;
10904;SDS011;5505;51.450;9.254;2023-12-20T08:31:14;10.13;;;2.97;;
10904;SDS011;5505;51.450;9.254;2023-12-20T08:34:02;7.30;;;2.67;;
10904;SDS011;5505;51.450;9.254;2023-12-20T08:36:50;5.87;;;2.37;;
10904;SDS011;5505;51.450;9.254;2023-12-20T08:39:37;9.90;;;3.10;;
10904;SDS011;5505;51.450;9.254;2023-12-20T08:42:24;6.53;;;2.70;;
10904;SDS011;5505;51.450;9.254;2023-12-20T08:45:16;8.20;;;2.63;;
10904;SDS011;5505;51.450;9.254;2023-12-20T08:48:04;6.67;;;2.30;;
10904;SDS011;5505;51.450;9.254;2023-12-20T08:50:52;11.07;;;2.80;;
10904;SDS011;5505;51.450;9.254;2023-12-20T08:53:39;7.60;;;2.43;;
10904;SDS011;5505;51.450;9.254;2023-12-20T08:56:26;10.23;;;2.67;;
10904;SDS011;5505;51.450;9.254;2023-12-20T08:59:13;11.07;;;2.97;;
10904;SDS011;5505;51.450;9.254;2023-12-20T09:02:00;10.00;;;2.83;;
10904;SDS011;5505;51.450;9.254;2023-12-20T09:04:48;9.60;;;3.27;;
10904;SDS011;5505;51.450;9.254;2023-12-20T09:07:35;9.60;;;3.47;;
10904;SDS011;5505;51.450;9.254;2023-12-20T09:10:22;7.33;;;3.00;;
10904;SDS011;5505;51.450;9.254;2023-12-20T09:13:09;10.57;;;2.80;;
10904;SDS011;5505;51.450;9.254;2023-12-20T09:15:56;8.97;;;3.57;;
10904;SDS011;5505;51.450;9.254;2023-12-20T09:18:43;13.13;;;3.17;;
10904;SDS011;5505;51.450;9.254;2023-12-20T09:21:31;7.80;;;3.03;;
10904;SDS011;5505;51.450;9.254;2023-12-20T09:24:18;10.70;;;3.23;;
10904;SDS011;5505;51.450;9.254;2023-12-20T09:27:04;10.47;;;2.80;;
10904;SDS011;5505;51.450;9.254;2023-12-20T09:29:51;9.93;;;3.20;;
10904;SDS011;5505;51.450;9.254;2023-12-20T09:32:38;12.40;;;3.63;;
10904;SDS011;5505;51.450;9.254;2023-12-20T09:35:25;8.63;;;3.37;;
10904;SDS011;5505;51.450;9.254;2023-12-20T09:38:13;9.43;;;3.47;;
10904;SDS011;5505;51.450;9.254;2023-12-20T09:41:02;7.10;;;2.90;;
10904;SDS011;5505;51.450;9.254;2023-12-20T09:43:50;7.73;;;3.20;;
10904;SDS011;5505;51.450;9.254;2023-12-20T09:46:41;15.30;;;3.70;;
10904;SDS011;5505;51.450;9.254;2023-12-20T09:49:30;6.53;;;2.67;;
10904;SDS011;5505;51.450;9.254;2023-12-20T09:52:17;9.80;;;2.70;;
10904;SDS011;5505;51.450;9.254;2023-12-20T09:55:06;11.00;;;3.23;;
10904;SDS011;5505;51.450;9.254;2023-12-20T09:57:54;9.13;;;2.93;;
10904;SDS011;5505;51.450;9.254;2023-12-20T10:00:41;8.30;;;3.47;;
10904;SDS011;5505;51.450;9.254;2023-12-20T10:03:28;10.67;;;3.07;;
10904;SDS011;5505;51.450;9.254;2023-12-20T10:06:16;7.93;;;2.70;;
10904;SDS011;5505;51.450;9.254;2023-12-20T10:09:04;10.07;;;3.10;;
10904;SDS011;5505;51.450;9.254;2023-12-20T10:11:54;5.97;;;2.63;;
10904;SDS011;5505;51.450;9.254;2023-12-20T10:14:42;7.30;;;3.30;;
10904;SDS011;5505;51.450;9.254;2023-12-20T10:17:29;7.57;;;3.20;;
10904;SDS011;5505;51.450;9.254;2023-12-20T10:20:16;7.13;;;2.97;;
10904;SDS011;5505;51.450;9.254;2023-12-20T10:23:03;5.93;;;2.90;;
10904;SDS011;5505;51.450;9.254;2023-12-20T10:25:55;6.47;;;2.80;;
10904;SDS011;5505;51.450;9.254;2023-12-20T10:28:45;9.40;;;3.10;;
10904;SDS011;5505;51.450;9.254;2023-12-20T10:31:32;7.23;;;2.93;;
10904;SDS011;5505;51.450;9.254;2023-12-20T10:34:20;7.77;;;2.63;;
10904;SDS011;5505;51.450;9.254;2023-12-20T10:37:06;6.83;;;2.90;;
10904;SDS011;5505;51.450;9.254;2023-12-20T10:39:53;5.30;;;2.20;;
10904;SDS011;5505;51.450;9.254;2023-12-20T10:42:42;9.07;;;3.00;;
10904;SDS011;5505;51.450;9.254;2023-12-20T10:45:30;7.10;;;2.90;;
10904;SDS011;5505;51.450;9.254;2023-12-20T10:48:18;10.93;;;2.83;;
10904;SDS011;5505;51.450;9.254;2023-12-20T10:51:06;9.60;;;2.77;;
10904;SDS011;5505;51.450;9.254;2023-12-20T10:53:53;9.80;;;3.30;;
10904;SDS011;5505;51.450;9.254;2023-12-20T10:56:41;9.00;;;2.60;;
10904;SDS011;5505;51.450;9.254;2023-12-20T10:59:28;5.73;;;2.10;;
10904;SDS011;5505;51.450;9.254;2023-12-20T11:02:20;7.07;;;2.70;;
10904;SDS011;5505;51.450;9.254;2023-12-20T11:05:10;7.77;;;2.27;;
10904;SDS011;5505;51.450;9.254;2023-12-20T11:08:07;9.00;;;2.60;;
10904;SDS011;5505;51.450;9.254;2023-12-20T11:10:59;4.77;;;2.30;;
10904;SDS011;5505;51.450;9.254;2023-12-20T11:13:53;11.00;;;2.73;;
10904;SDS011;5505;51.450;9.254;2023-12-20T11:16:44;7.63;;;2.40;;
10904;SDS011;5505;51.450;9.254;2023-12-20T11:19:33;6.00;;;2.10;;
10904;SDS011;5505;51.450;9.254;2023-12-20T11:22:23;6.87;;;2.43;;
10904;SDS011;5505;51.450;9.254;2023-12-20T11:25:11;6.97;;;2.20;;
10904;SDS011;5505;51.450;9.254;2023-12-20T11:28:07;6.77;;;2.30;;
10904;SDS011;5505;51.450;9.254;2023-12-20T11:30:56;8.63;;;3.00;;
10904;SDS011;5505;51.450;9.254;2023-12-20T11:33:44;8.73;;;3.10;;
10904;SDS011;5505;51.450;9.254;2023-12-20T11:36:34;6.23;;;2.93;;
10904;SDS011;5505;51.450;9.254;2023-12-20T11:39:21;6.30;;;2.23;;
10904;SDS011;5505;51.450;9.254;2023-12-20T11:42:08;6.73;;;2.10;;
10904;SDS011;5505;51.450;9.254;2023-12-20T11:44:56;6.30;;;1.90;;
10904;SDS011;5505;51.450;9.254;2023-12-20T11:47:44;6.43;;;2.30;;
10904;SDS011;5505;51.450;9.254;2023-12-20T11:50:34;6.63;;;2.27;;
10904;SDS011;5505;51.450;9.254;2023-12-20T11:53:23;6.00;;;2.77;;
10904;SDS011;5505;51.450;9.254;2023-12-20T11:56:10;7.00;;;2.23;;
10904;SDS011;5505;51.450;9.254;2023-12-20T11:58:57;5.97;;;2.60;;
10904;SDS011;5505;51.450;9.254;2023-12-20T12:01:47;6.77;;;2.33;;
10904;SDS011;5505;51.450;9.254;2023-12-20T12:04:35;14.83;;;3.13;;
10904;SDS011;5505;51.450;9.254;2023-12-20T12:07:22;7.13;;;2.47;;
10904;SDS011;5505;51.450;9.254;2023-12-20T12:10:10;8.50;;;2.50;;
10904;SDS011;5505;51.450;9.254;2023-12-20T12:12:57;10.53;;;2.70;;
10904;SDS011;5505;51.450;9.254;2023-12-20T12:15:44;6.23;;;2.30;;
10904;SDS011;5505;51.450;9.254;2023-12-20T12:18:32;6.20;;;3.00;;
10904;SDS011;5505;51.450;9.254;2023-12-20T12:21:19;9.23;;;2.43;;
10904;SDS011;5505;51.450;9.254;2023-12-20T12:24:07;6.13;;;2.10;;
10904;SDS011;5505;51.450;9.254;2023-12-20T12:26:56;6.63;;;2.50;;
10904;SDS011;5505;51.450;9.254;2023-12-20T12:32:49;8.30;;;2.60;;
10904;SDS011;5505;51.450;9.254;2023-12-20T12:35:37;8.17;;;2.70;;
10904;SDS011;5505;51.450;9.254;2023-12-20T12:38:24;9.37;;;2.70;;
10904;SDS011;5505;51.450;9.254;2023-12-20T12:41:12;5.67;;;2.40;;
10904;SDS011;5505;51.450;9.254;2023-12-20T12:44:01;8.70;;;2.30;;
10904;SDS011;5505;51.450;9.254;2023-12-20T12:46:48;8.20;;;2.50;;
10904;SDS011;5505;51.450;9.254;2023-12-20T12:49:36;9.03;;;2.77;;
10904;SDS011;5505;51.450;9.254;2023-12-20T12:52:23;6.73;;;2.77;;
10904;SDS011;5505;51.450;9.254;2023-12-20T12:55:09;8.03;;;2.73;;
10904;SDS011;5505;51.450;9.254;2023-12-20T12:57:56;6.77;;;2.90;;
10904;SDS011;5505;51.450;9.254;2023-12-20T13:00:44;7.13;;;3.00;;
10904;SDS011;5505;51.450;9.254;2023-12-20T13:03:31;7.47;;;2.53;;
10904;SDS011;5505;51.450;9.254;2023-12-20T13:06:19;4.90;;;2.83;;
10904;SDS011;5505;51.450;9.254;2023-12-20T13:09:06;6.33;;;2.90;;
10904;SDS011;5505;51.450;9.254;2023-12-20T13:11:54;5.57;;;2.57;;
10904;SDS011;5505;51.450;9.254;2023-12-20T13:14:41;6.13;;;2.77;;
10904;SDS011;5505;51.450;9.254;2023-12-20T13:17:29;6.97;;;2.83;;
10904;SDS011;5505;51.450;9.254;2023-12-20T13:20:16;9.47;;;2.90;;
10904;SDS011;5505;51.450;9.254;2023-12-20T13:23:03;4.77;;;2.90;;
10904;SDS011;5505;51.450;9.254;2023-12-20T13:25:50;5.07;;;3.00;;
10904;SDS011;5505;51.450;9.254;2023-12-20T13:28:37;4.80;;;2.80;;
10904;SDS011;5505;51.450;9.254;2023-12-20T13:31:23;9.07;;;2.90;;
10904;SDS011;5505;51.450;9.254;2023-12-20T13:34:12;6.60;;;2.70;;
10904;SDS011;5505;51.450;9.254;2023-12-20T13:36:59;12.43;;;3.07;;
10904;SDS011;5505;51.450;9.254;2023-12-20T13:39:45;9.43;;;2.80;;
10904;SDS011;5505;51.450;9.254;2023-12-20T13:42:32;5.77;;;2.93;;
10904;SDS011;5505;51.450;9.254;2023-12-20T13:45:19;7.43;;;2.93;;
10904;SDS011;5505;51.450;9.254;2023-12-20T13:48:06;5.47;;;2.63;;
10904;SDS011;5505;51.450;9.254;2023-12-20T13:50:55;4.97;;;2.53;;
10904;SDS011;5505;51.450;9.254;2023-12-20T13:53:42;7.57;;;2.90;;
10904;SDS011;5505;51.450;9.254;2023-12-20T13:56:28;4.67;;;2.40;;
10904;SDS011;5505;51.450;9.254;2023-12-20T13:59:15;5.10;;;2.20;;
10904;SDS011;5505;51.450;9.254;2023-12-20T14:02:02;5.50;;;2.37;;
10904;SDS011;5505;51.450;9.254;2023-12-20T14:04:49;5.10;;;2.27;;
10904;SDS011;5505;51.450;9.254;2023-12-20T14:07:37;8.57;;;2.57;;
10904;SDS011;5505;51.450;9.254;2023-12-20T14:10:24;4.33;;;2.20;;
10904;SDS011;5505;51.450;9.254;2023-12-20T14:13:12;7.23;;;2.37;;
10904;SDS011;5505;51.450;9.254;2023-12-20T14:15:59;4.30;;;2.00;;
10904;SDS011;5505;51.450;9.254;2023-12-20T14:18:47;5.07;;;2.17;;
10904;SDS011;5505;51.450;9.254;2023-12-20T14:21:34;5.80;;;3.93;;
10904;SDS011;5505;51.450;9.254;2023-12-20T14:24:22;7.10;;;2.50;;
10904;SDS011;5505;51.450;9.254;2023-12-20T14:27:10;4.50;;;2.23;;
10904;SDS011;5505;51.450;9.254;2023-12-20T14:29:57;6.87;;;2.13;;
10904;SDS011;5505;51.450;9.254;2023-12-20T14:32:44;3.80;;;2.07;;
10904;SDS011;5505;51.450;9.254;2023-12-20T14:35:32;5.07;;;3.10;;
10904;SDS011;5505;51.450;9.254;2023-12-20T14:38:19;5.30;;;2.80;;
10904;SDS011;5505;51.450;9.254;2023-12-20T14:41:07;4.53;;;2.10;;
10904;SDS011;5505;51.450;9.254;2023-12-20T14:43:54;4.70;;;1.87;;
10904;SDS011;5505;51.450;9.254;2023-12-20T14:46:41;5.00;;;1.83;;
10904;SDS011;5505;51.450;9.254;2023-12-20T14:49:28;4.87;;;2.03;;
10904;SDS011;5505;51.450;9.254;2023-12-20T14:52:15;3.93;;;2.07;;
10904;SDS011;5505;51.450;9.254;2023-12-20T14:55:04;5.07;;;2.10;;
10904;SDS011;5505;51.450;9.254;2023-12-20T14:57:52;5.80;;;2.70;;
10904;SDS011;5505;51.450;9.254;2023-12-20T15:00:39;6.50;;;2.33;;
10904;SDS011;5505;51.450;9.254;2023-12-20T15:03:27;7.17;;;2.80;;
10904;SDS011;5505;51.450;9.254;2023-12-20T15:06:15;8.77;;;2.60;;
10904;SDS011;5505;51.450;9.254;2023-12-20T15:09:02;7.83;;;2.10;;
10904;SDS011;5505;51.450;9.254;2023-12-20T15:11:50;6.07;;;2.73;;
10904;SDS011;5505;51.450;9.254;2023-12-20T15:14:38;4.93;;;2.57;;
10904;SDS011;5505;51.450;9.254;2023-12-20T15:17:25;9.20;;;2.70;;
10904;SDS011;5505;51.450;9.254;2023-12-20T15:20:12;8.83;;;2.77;;
10904;SDS011;5505;51.450;9.254;2023-12-20T15:22:59;8.73;;;2.90;;
10904;SDS011;5505;51.450;9.254;2023-12-20T15:25:52;7.63;;;2.50;;
10904;SDS011;5505;51.450;9.254;2023-12-20T15:28:38;7.07;;;2.50;;
10904;SDS011;5505;51.450;9.254;2023-12-20T15:31:27;7.83;;;2.63;;
10904;SDS011;5505;51.450;9.254;2023-12-20T15:34:14;9.03;;;2.83;;
10904;SDS011;5505;51.450;9.254;2023-12-20T15:37:01;5.93;;;2.10;;
10904;SDS011;5505;51.450;9.254;2023-12-20T15:39:48;7.37;;;2.50;;
10904;SDS011;5505;51.450;9.254;2023-12-20T15:42:34;5.67;;;2.20;;
10904;SDS011;5505;51.450;9.254;2023-12-20T15:45:21;5.87;;;2.10;;
10904;SDS011;5505;51.450;9.254;2023-12-20T15:48:09;7.17;;;2.30;;
10904;SDS011;5505;51.450;9.254;2023-12-20T15:51:04;5.83;;;2.03;;
10904;SDS011;5505;51.450;9.254;2023-12-20T15:53:51;5.53;;;2.30;;
10904;SDS011;5505;51.450;9.254;2023-12-20T15:56:38;6.50;;;2.40;;
10904;SDS011;5505;51.450;9.254;2023-12-20T15:59:26;5.27;;;2.03;;
10904;SDS011;5505;51.450;9.254;2023-12-20T16:02:13;5.43;;;2.33;;
10904;SDS011;5505;51.450;9.254;2023-12-20T16:05:01;9.00;;;3.07;;
10904;SDS011;5505;51.450;9.254;2023-12-20T16:07:48;6.83;;;2.80;;
10904;SDS011;5505;51.450;9.254;2023-12-20T16:10:35;5.87;;;2.90;;
10904;SDS011;5505;51.450;9.254;2023-12-20T16:13:22;7.73;;;2.53;;
10904;SDS011;5505;51.450;9.254;2023-12-20T16:16:09;7.03;;;2.77;;
10904;SDS011;5505;51.450;9.254;2023-12-20T16:18:56;6.53;;;1.97;;
10904;SDS011;5505;51.450;9.254;2023-12-20T16:21:44;5.50;;;2.37;;
10904;SDS011;5505;51.450;9.254;2023-12-20T16:24:31;6.40;;;2.70;;
10904;SDS011;5505;51.450;9.254;2023-12-20T16:27:20;4.60;;;2.47;;
10904;SDS011;5505;51.450;9.254;2023-12-20T16:30:07;3.87;;;2.30;;
10904;SDS011;5505;51.450;9.254;2023-12-20T16:32:54;4.63;;;2.07;;
10904;SDS011;5505;51.450;9.254;2023-12-20T16:35:41;5.30;;;2.30;;
10904;SDS011;5505;51.450;9.254;2023-12-20T16:38:30;4.33;;;2.50;;
10904;SDS011;5505;51.450;9.254;2023-12-20T16:41:17;5.10;;;2.93;;
10904;SDS011;5505;51.450;9.254;2023-12-20T16:44:04;9.00;;;3.43;;
10904;SDS011;5505;51.450;9.254;2023-12-20T16:46:53;4.47;;;2.43;;
10904;SDS011;5505;51.450;9.254;2023-12-20T16:49:40;4.77;;;2.13;;
10904;SDS011;5505;51.450;9.254;2023-12-20T16:52:27;5.37;;;2.70;;
10904;SDS011;5505;51.450;9.254;2023-12-20T16:55:16;5.07;;;2.70;;
10904;SDS011;5505;51.450;9.254;2023-12-20T16:58:03;6.10;;;2.80;;
10904;SDS011;5505;51.450;9.254;2023-12-20T17:00:50;6.20;;;2.60;;
10904;SDS011;5505;51.450;9.254;2023-12-20T17:03:37;5.63;;;3.20;;
10904;SDS011;5505;51.450;9.254;2023-12-20T17:06:24;5.93;;;2.20;;